Time;durP1;ratioP1;P1;durP2;ratioP2;P2;SDS_P1;SDS_P2;PMS_P1;PMS_P2;Temp;Humidity;BMP_temperature;BMP_pressure;BME280_temperature;BME280_humidity;BME280_pressure;Samples;Min_cycle;Max_cycle;Signal;HPM_P1;HPM_P2
2022/07/15 00:02:18;;;;;;;;;;;;;;;20.83;46.21;100815.09;5018676;28;19917;-80
2022/07/15 00:04:44;;;;;;;;;;;;;;;20.81;46.15;100814.50;5036427;28;19909;-80
2022/07/15 00:07:12;;;;;;;;;;;;;;;20.82;46.10;100813.44;5034065;28;20433;-79
2022/07/15 00:12:21;;;;;;;;;;;;;;;20.78;46.05;100811.38;5035929;28;20053;-79
2022/07/15 00:14:46;;;;;;;;;;;;;;;20.68;46.03;100808.34;5014210;28;20440;-81
2022/07/15 00:17:12;;;;;;;;;;;;;;;20.70;46.17;100814.38;4998811;28;19917;-79
2022/07/15 00:19:37;;;;;;;;;;;;;;;20.58;46.18;100806.06;5025835;28;19961;-80
2022/07/15 00:22:02;;;;;;;;;;;;;;;20.61;46.36;100808.38;5018348;28;19999;-80
2022/07/15 00:24:28;;;;;;;;;;;;;;;20.60;46.11;100804.81;4993876;28;19920;-80
2022/07/15 00:26:53;;;;;;;;;;;;;;;20.72;45.86;100806.81;5034379;28;19912;-81
2022/07/15 00:29:18;;;;;;;;;;;;;;;20.65;45.77;100802.25;5042420;28;19916;-79
2022/07/15 00:31:44;;;;;;;;;;;;;;;20.63;45.78;100806.28;5035541;28;19921;-78
2022/07/15 00:34:09;;;;;;;;;;;;;;;20.64;45.75;100805.19;5031651;28;19917;-82
2022/07/15 00:36:34;;;;;;;;;;;;;;;20.59;46.17;100807.75;5033927;28;19913;-80
2022/07/15 00:39:00;;;;;;;;;;;;;;;20.55;46.12;100790.13;5030930;28;19909;-78
2022/07/15 00:41:28;;;;;;;;;;;;;;;20.50;46.33;100793.50;5031501;28;19917;-81
2022/07/15 00:43:53;;;;;;;;;;;;;;;20.43;46.82;100792.75;5014736;28;19979;-80
2022/07/15 00:46:19;;;;;;;;;;;;;;;20.38;46.77;100800.78;5032497;28;19909;-81
2022/07/15 00:48:44;;;;;;;;;;;;;;;20.27;47.15;100796.84;5014130;28;19921;-80
2022/07/15 00:51:10;;;;;;;;;;;;;;;20.24;46.92;100783.66;5013286;28;19909;-80
2022/07/15 00:53:35;;;;;;;;;;;;;;;20.32;47.07;100790.72;5035719;28;19916;-81
2022/07/15 00:56:01;;;;;;;;;;;;;;;20.26;46.91;100783.44;5012547;28;19948;-80
2022/07/15 00:58:26;;;;;;;;;;;;;;;20.22;46.90;100783.88;5036740;28;19917;-79
2022/07/15 01:00:52;;;;;;;;;;;;;;;20.22;47.21;100783.88;5014160;28;19913;-81
2022/07/15 01:03:17;;;;;;;;;;;;;;;20.27;46.99;100783.19;5017946;28;19909;-79
2022/07/15 01:05:43;;;;;;;;;;;;;;;20.27;46.64;100777.75;5013055;28;19913;-78
2022/07/15 01:08:08;;;;;;;;;;;;;;;20.11;47.25;100775.56;5028434;28;19913;-79
2022/07/15 01:10:34;;;;;;;;;;;;;;;20.21;47.14;100770.47;5030263;28;19938;-82
2022/07/15 01:13:02;;;;;;;;;;;;;;;20.10;47.30;100768.44;5034238;28;19904;-78
2022/07/15 01:15:27;;;;;;;;;;;;;;;20.19;47.25;100769.84;4999748;28;20055;-78
2022/07/15 01:17:53;;;;;;;;;;;;;;;20.11;47.29;100772.81;5034606;28;19991;-80
2022/07/15 01:20:19;;;;;;;;;;;;;;;20.06;47.25;100772.66;5047429;28;19920;-77
2022/07/15 01:22:44;;;;;;;;;;;;;;;20.06;47.28;100769.94;5023196;28;20436;-78
2022/07/15 01:25:10;;;;;;;;;;;;;;;20.11;47.18;100770.09;5030962;28;20010;-79
2022/07/15 01:27:35;;;;;;;;;;;;;;;20.06;47.51;100767.19;5031670;28;19920;-79
2022/07/15 01:30:00;;;;;;;;;;;;;;;20.01;47.59;100768.69;5012667;28;19909;-79
2022/07/15 01:32:26;;;;;;;;;;;;;;;19.96;47.83;100771.25;5031917;28;20277;-79
2022/07/15 01:34:52;;;;;;;;;;;;;;;20.00;47.47;100761.56;5012492;28;19909;-83
2022/07/15 01:37:18;;;;;;;;;;;;;;;20.06;47.31;100765.28;5020732;28;19912;-79
2022/07/15 01:39:43;;;;;;;;;;;;;;;19.97;47.62;100759.28;5036723;28;19912;-80
2022/07/15 01:42:08;;;;;;;;;;;;;;;19.93;47.47;100760.78;5031720;28;19921;-80
2022/07/15 01:44:33;;;;;;;;;;;;;;;19.91;47.44;100762.06;5039642;28;19909;-79
2022/07/15 01:46:59;;;;;;;;;;;;;;;19.90;47.51;100763.97;5031927;28;19916;-80
2022/07/15 01:49:31;;;;;;;;;;;;;;;19.84;47.43;100759.38;5041022;28;20233;-84
2022/07/15 01:51:56;;;;;;;;;;;;;;;19.83;47.42;100757.72;5032496;28;20292;-79
2022/07/15 01:54:22;;;;;;;;;;;;;;;19.75;47.88;100753.34;5032696;28;19912;-82
2022/07/15 01:56:48;;;;;;;;;;;;;;;19.73;48.01;100762.78;5036118;28;20238;-79
2022/07/15 01:59:14;;;;;;;;;;;;;;;19.73;47.89;100754.59;5020961;28;19909;-79
2022/07/15 02:01:39;;;;;;;;;;;;;;;19.76;48.03;100755.03;5035076;28;19912;-80
2022/07/15 02:04:04;;;;;;;;;;;;;;;19.76;48.08;100754.16;5038292;28;19989;-80
2022/07/15 02:06:30;;;;;;;;;;;;;;;19.76;48.04;100756.91;5017204;28;19913;-79
2022/07/15 02:08:55;;;;;;;;;;;;;;;19.71;47.91;100756.72;5019925;28;20323;-81
2022/07/15 02:11:21;;;;;;;;;;;;;;;19.66;48.36;100760.06;5016835;28;20046;-79
2022/07/15 02:13:46;;;;;;;;;;;;;;;19.70;48.07;100758.63;5017207;28;19905;-79
2022/07/15 02:16:11;;;;;;;;;;;;;;;19.65;48.11;100757.59;5016441;28;20324;-80
2022/07/15 02:18:37;;;;;;;;;;;;;;;19.59;48.46;100765.56;5038624;28;19904;-80
2022/07/15 02:21:03;;;;;;;;;;;;;;;19.70;48.42;100761.34;5015451;28;19917;-80
2022/07/15 02:23:28;;;;;;;;;;;;;;;19.75;47.99;100761.50;5042712;28;20457;-78
2022/07/15 02:25:54;;;;;;;;;;;;;;;19.72;48.01;100761.13;5015649;28;20376;-80
2022/07/15 02:28:19;;;;;;;;;;;;;;;19.68;48.42;100763.44;5041199;28;19909;-81
2022/07/15 02:30:44;;;;;;;;;;;;;;;19.75;48.32;100763.41;5015655;28;19912;-80
2022/07/15 02:33:10;;;;;;;;;;;;;;;19.76;48.12;100765.06;5024905;28;19905;-80
2022/07/15 02:35:35;;;;;;;;;;;;;;;19.75;48.23;100766.16;5015511;28;19913;-80
2022/07/15 02:38:01;;;;;;;;;;;;;;;19.71;48.08;100762.19;5038846;28;19925;-80
2022/07/15 02:40:26;;;;;;;;;;;;;;;19.71;48.08;100767.63;5033404;28;20020;-80
2022/07/15 02:42:55;;;;;;;;;;;;;;;19.73;48.28;100760.91;5017841;28;19921;-83
2022/07/15 02:45:22;;;;;;;;;;;;;;;19.69;48.42;100754.22;5015292;28;19920;-80
2022/07/15 02:47:48;;;;;;;;;;;;;;;19.65;48.50;100758.41;5017218;28;19967;-80
2022/07/15 02:50:13;;;;;;;;;;;;;;;19.51;48.98;100752.19;5035377;28;19909;-80
2022/07/15 02:52:38;;;;;;;;;;;;;;;19.47;49.26;100759.13;5040878;28;19912;-80
2022/07/15 02:55:04;;;;;;;;;;;;;;;19.50;49.17;100760.56;5036478;28;20320;-79
2022/07/15 02:57:29;;;;;;;;;;;;;;;19.47;49.72;100750.94;5022557;28;19987;-79
2022/07/15 02:59:55;;;;;;;;;;;;;;;19.50;50.03;100755.97;5020706;28;19967;-80
2022/07/15 03:02:20;;;;;;;;;;;;;;;19.43;49.83;100752.41;5035257;28;19913;-79
2022/07/15 03:04:45;;;;;;;;;;;;;;;19.44;50.20;100751.38;5037851;28;19909;-79
2022/07/15 03:07:11;;;;;;;;;;;;;;;19.35;50.27;100748.06;5020195;28;19912;-80
2022/07/15 03:09:36;;;;;;;;;;;;;;;19.32;50.57;100753.13;5014300;28;19913;-80
2022/07/15 03:12:02;;;;;;;;;;;;;;;19.38;50.31;100750.34;5017349;28;19913;-80
2022/07/15 03:14:27;;;;;;;;;;;;;;;19.38;50.54;100752.25;5033415;28;19952;-79
2022/07/15 03:16:52;;;;;;;;;;;;;;;19.42;50.57;100760.84;5034943;28;20004;-81
2022/07/15 03:19:19;;;;;;;;;;;;;;;19.53;50.25;100754.72;5025869;28;19966;-79
2022/07/15 03:21:45;;;;;;;;;;;;;;;19.49;50.33;100754.28;5035554;28;19971;-80
2022/07/15 03:24:12;;;;;;;;;;;;;;;19.45;50.67;100755.78;5023653;28;19913;-80
2022/07/15 03:26:38;;;;;;;;;;;;;;;19.45;50.71;100758.50;5015796;28;19959;-80
2022/07/15 03:29:04;;;;;;;;;;;;;;;19.38;50.89;100753.06;5021624;28;19945;-80
2022/07/15 03:31:29;;;;;;;;;;;;;;;19.43;51.02;100749.69;5033618;28;19920;-80
2022/07/15 03:33:55;;;;;;;;;;;;;;;19.35;50.93;100747.22;5040343;28;19923;-80
2022/07/15 03:36:21;;;;;;;;;;;;;;;19.40;51.27;100750.13;5033101;28;20020;-80
2022/07/15 03:38:47;;;;;;;;;;;;;;;19.40;51.04;100750.97;5037807;28;19928;-80
2022/07/15 03:41:12;;;;;;;;;;;;;;;19.43;51.15;100751.59;5014364;28;19913;-79
2022/07/15 03:43:38;;;;;;;;;;;;;;;19.48;50.66;100758.09;5017285;28;19925;-79
2022/07/15 03:46:04;;;;;;;;;;;;;;;19.48;50.69;100758.09;5031381;28;19909;-79
2022/07/15 03:48:29;;;;;;;;;;;;;;;19.49;50.72;100758.91;5018455;28;19943;-80
2022/07/15 03:50:54;;;;;;;;;;;;;;;19.52;50.80;100756.56;5032038;28;20368;-80
2022/07/15 03:53:19;;;;;;;;;;;;;;;19.55;50.57;100750.72;5035659;28;20418;-79
2022/07/15 03:55:45;;;;;;;;;;;;;;;19.61;50.39;100754.44;5032972;28;20369;-80
2022/07/15 03:58:10;;;;;;;;;;;;;;;19.58;50.59;100761.16;5035619;28;19975;-80
2022/07/15 04:00:35;;;;;;;;;;;;;;;19.76;50.16;100756.91;5017563;28;19952;-79
2022/07/15 04:03:01;;;;;;;;;;;;;;;19.71;50.34;100762.19;5034648;28;19913;-80
2022/07/15 04:05:26;;;;;;;;;;;;;;;19.72;50.51;100758.41;5018662;28;20302;-80
2022/07/15 04:07:52;;;;;;;;;;;;;;;19.80;50.47;100758.13;5016015;28;19909;-80
2022/07/15 04:10:17;;;;;;;;;;;;;;;19.93;49.99;100760.78;5031262;28;19920;-79
2022/07/15 04:12:42;;;;;;;;;;;;;;;20.11;49.59;100761.91;5018962;28;19919;-79
2022/07/15 04:15:08;;;;;;;;;;;;;;;20.31;49.28;100762.59;5013874;28;19913;-80
2022/07/15 04:17:34;;;;;;;;;;;;;;;20.36;48.84;100760.03;5004158;28;19967;-79
2022/07/15 04:19:59;;;;;;;;;;;;;;;20.54;48.59;100761.16;5023210;28;20015;-79
2022/07/15 04:22:24;;;;;;;;;;;;;;;20.64;48.21;100767.78;5035557;28;19942;-80
2022/07/15 04:24:50;;;;;;;;;;;;;;;20.83;47.61;100762.34;5031084;28;20375;-80
2022/07/15 04:27:15;;;;;;;;;;;;;;;21.05;47.01;100758.13;5019526;28;19917;-79
2022/07/15 04:29:41;;;;;;;;;;;;;;;21.21;46.93;100764.88;5026359;28;20022;-81
2022/07/15 04:32:06;;;;;;;;;;;;;;;21.33;46.37;100764.94;5013843;28;19913;-80
2022/07/15 04:34:31;;;;;;;;;;;;;;;21.64;45.50;100758.44;5021420;28;19909;-79
2022/07/15 04:36:57;;;;;;;;;;;;;;;21.82;44.75;100768.53;5012977;28;19974;-80
2022/07/15 04:39:22;;;;;;;;;;;;;;;22.02;44.24;100765.47;5013027;28;20035;-82
2022/07/15 04:41:49;;;;;;;;;;;;;;;22.25;43.77;100761.97;5032649;28;20000;-81
2022/07/15 04:44:15;;;;;;;;;;;;;;;22.46;43.10;100766.06;5032277;28;19909;-80
2022/07/15 04:46:41;;;;;;;;;;;;;;;22.68;42.38;100768.19;5033103;28;20039;-79
2022/07/15 04:51:50;;;;;;;;;;;;;;;23.20;41.05;100770.19;5033595;28;19985;-80
2022/07/15 04:54:15;;;;;;;;;;;;;;;23.38;40.26;100762.63;5015648;28;20361;-80
2022/07/15 04:56:41;;;;;;;;;;;;;;;23.58;39.45;100755.91;5032307;28;19917;-79
2022/07/15 04:59:06;;;;;;;;;;;;;;;23.89;39.07;100765.56;5018594;28;19932;-79
2022/07/15 05:01:31;;;;;;;;;;;;;;;24.14;38.65;100761.56;5014890;28;20269;-79
2022/07/15 05:03:57;;;;;;;;;;;;;;;24.32;38.07;100764.09;5035378;28;19909;-81
2022/07/15 05:06:22;;;;;;;;;;;;;;;24.54;37.91;100758.72;5014198;28;19925;-81
2022/07/15 05:08:48;;;;;;;;;;;;;;;24.76;37.35;100764.25;5034847;28;19916;-80
2022/07/15 05:11:13;;;;;;;;;;;;;;;24.92;37.04;100765.31;5030984;28;20153;-80
2022/07/15 05:13:39;;;;;;;;;;;;;;;25.13;37.02;100762.84;5026533;28;20302;-80
2022/07/15 05:16:04;;;;;;;;;;;;;;;25.39;36.68;100756.56;5017404;28;19916;-81
2022/07/15 05:18:30;;;;;;;;;;;;;;;25.61;36.78;100763.97;5039372;28;19916;-80
2022/07/15 05:20:55;;;;;;;;;;;;;;;25.88;36.83;100759.34;5030767;28;20320;-80
2022/07/15 05:23:20;;;;;;;;;;;;;;;26.06;36.44;100760.06;5030312;28;19916;-80
2022/07/15 05:25:46;;;;;;;;;;;;;;;26.15;36.62;100757.66;5030600;28;20336;-80
2022/07/15 05:28:11;;;;;;;;;;;;;;;26.34;36.38;100756.16;5022301;28;19996;-81
2022/07/15 05:30:37;;;;;;;;;;;;;;;26.62;35.91;100760.53;5043434;28;19917;-80
2022/07/15 05:33:02;;;;;;;;;;;;;;;26.90;36.07;100752.97;5043275;28;19908;-80
2022/07/15 05:35:28;;;;;;;;;;;;;;;27.17;35.41;100759.16;5016850;28;19924;-80
2022/07/15 05:37:53;;;;;;;;;;;;;;;27.33;35.29;100762.03;5023235;28;20387;-80
2022/07/15 05:40:21;;;;;;;;;;;;;;;27.51;34.89;100764.31;5016913;28;20059;-79
2022/07/15 05:42:46;;;;;;;;;;;;;;;27.76;34.69;100765.47;5018192;28;19940;-80
2022/07/15 05:45:12;;;;;;;;;;;;;;;27.96;34.46;100759.19;5017507;28;20443;-80
2022/07/15 05:47:37;;;;;;;;;;;;;;;28.22;34.45;100756.44;5035911;28;20369;-80
2022/07/15 05:50:03;;;;;;;;;;;;;;;28.46;33.28;100752.00;5036005;28;19948;-81
2022/07/15 05:52:28;;;;;;;;;;;;;;;28.65;33.06;100757.78;5018894;28;19917;-79
2022/07/15 05:54:53;;;;;;;;;;;;;;;28.79;32.65;100761.63;5037166;28;19909;-80
2022/07/15 05:57:19;;;;;;;;;;;;;;;28.77;33.02;100747.25;5018676;28;19917;-80
2022/07/15 05:59:44;;;;;;;;;;;;;;;29.03;32.47;100750.78;5018745;28;19916;-80
2022/07/15 06:02:09;;;;;;;;;;;;;;;29.32;32.63;100741.81;5036257;28;19952;-79
2022/07/15 06:04:35;;;;;;;;;;;;;;;29.51;32.43;100741.19;5015704;28;19940;-80
2022/07/15 06:07:00;;;;;;;;;;;;;;;29.79;31.57;100746.00;5036468;28;19913;-81
2022/07/15 06:09:25;;;;;;;;;;;;;;;30.06;30.51;100733.59;5033400;28;19931;-79
2022/07/15 06:11:51;;;;;;;;;;;;;;;30.08;30.03;100736.91;5036500;28;19912;-80
2022/07/15 06:14:17;;;;;;;;;;;;;;;30.14;29.58;100730.22;5040227;28;19916;-80
2022/07/15 06:16:43;;;;;;;;;;;;;;;30.17;29.30;100740.72;5035803;28;19916;-80
2022/07/15 06:19:08;;;;;;;;;;;;;;;30.40;28.96;100730.03;5043310;28;19909;-79
2022/07/15 06:21:35;;;;;;;;;;;;;;;30.67;28.77;100735.00;5038927;28;19917;-79
2022/07/15 06:24:00;;;;;;;;;;;;;;;30.69;27.80;100735.53;5039907;28;19920;-80
2022/07/15 06:26:26;;;;;;;;;;;;;;;30.92;27.46;100733.91;5033702;28;19921;-80
2022/07/15 06:28:52;;;;;;;;;;;;;;;31.14;27.69;100738.94;5023304;28;19962;-81
2022/07/15 06:31:17;;;;;;;;;;;;;;;31.27;27.52;100735.41;5016481;28;19959;-80
2022/07/15 06:33:43;;;;;;;;;;;;;;;31.45;28.09;100733.81;5022957;28;20362;-80
2022/07/15 06:36:08;;;;;;;;;;;;;;;31.37;28.05;100723.34;5033635;28;20420;-80
2022/07/15 06:38:33;;;;;;;;;;;;;;;31.54;27.45;100729.25;5033035;28;19909;-78
2022/07/15 06:40:59;;;;;;;;;;;;;;;31.52;27.75;100725.13;5015639;28;20008;-80
2022/07/15 06:43:24;;;;;;;;;;;;;;;31.76;27.17;100723.06;5017516;28;19933;-79
2022/07/15 06:45:49;;;;;;;;;;;;;;;31.95;26.97;100723.06;5015657;28;19913;-80
2022/07/15 06:48:15;;;;;;;;;;;;;;;32.22;26.46;100729.03;5032768;28;19909;-79
2022/07/15 06:50:40;;;;;;;;;;;;;;;32.31;26.45;100730.81;5015194;28;20344;-79
2022/07/15 06:53:05;;;;;;;;;;;;;;;32.59;24.80;100734.50;5017749;28;19916;-78
2022/07/15 06:55:31;;;;;;;;;;;;;;;32.77;25.02;100732.75;5001374;28;20288;-79
2022/07/15 06:57:56;;;;;;;;;;;;;;;33.06;24.52;100733.59;5038008;28;19909;-79
2022/07/15 07:00:21;;;;;;;;;;;;;;;33.29;24.59;100729.75;5018601;28;20429;-83
2022/07/15 07:02:47;;;;;;;;;;;;;;;33.69;24.05;100730.00;5017364;28;19917;-79
2022/07/15 07:05:12;;;;;;;;;;;;;;;33.95;23.35;100726.59;5036914;28;20441;-80
2022/07/15 07:07:40;;;;;;;;;;;;;;;34.20;22.09;100723.19;5035453;28;19909;-79
2022/07/15 07:10:06;;;;;;;;;;;;;;;34.33;21.79;100727.06;5036751;28;19913;-80
2022/07/15 07:12:31;;;;;;;;;;;;;;;34.59;21.37;100724.38;5020039;28;20291;-80
2022/07/15 07:14:57;;;;;;;;;;;;;;;34.84;21.41;100733.22;5015014;28;20278;-80
2022/07/15 07:17:22;;;;;;;;;;;;;;;34.74;20.82;100734.31;5037178;28;20313;-80
2022/07/15 07:19:48;;;;;;;;;;;;;;;35.00;21.10;100728.00;5041977;28;19913;-80
2022/07/15 07:22:13;;;;;;;;;;;;;;;35.02;21.09;100726.53;5032695;28;19923;-80
2022/07/15 07:24:40;;;;;;;;;;;;;;;34.79;20.54;100730.56;5032141;28;19909;-81
2022/07/15 07:27:08;;;;;;;;;;;;;;;34.98;21.29;100731.16;5037552;28;19913;-80
2022/07/15 07:29:33;;;;;;;;;;;;;;;34.96;20.83;100721.41;5023363;28;19917;-80
2022/07/15 07:31:59;;;;;;;;;;;;;;;35.29;20.69;100730.25;5031990;28;20000;-80
2022/07/15 07:34:24;;;;;;;;;;;;;;;35.38;20.97;100730.25;5032284;28;19909;-80
2022/07/15 07:36:49;;;;;;;;;;;;;;;35.20;21.24;100721.03;5017234;28;19913;-78
2022/07/15 07:39:15;;;;;;;;;;;;;;;35.17;21.46;100725.31;5016548;28;19909;-80
2022/07/15 07:41:40;;;;;;;;;;;;;;;35.19;21.24;100720.22;5017059;28;20024;-80
2022/07/15 07:44:06;;;;;;;;;;;;;;;35.21;21.46;100717.91;5031798;28;19964;-80
2022/07/15 07:46:31;;;;;;;;;;;;;;;35.39;20.78;100718.75;5015120;28;20045;-79
2022/07/15 07:48:57;;;;;;;;;;;;;;;35.53;21.45;100723.38;5034813;28;19909;-80
2022/07/15 07:51:25;;;;;;;;;;;;;;;35.13;21.71;100720.69;5032590;28;19908;-81
2022/07/15 07:53:53;;;;;;;;;;;;;;;34.76;22.35;100718.06;5026176;28;19909;-80
2022/07/15 07:56:18;;;;;;;;;;;;;;;34.44;22.68;100717.28;5014462;28;19916;-81
2022/07/15 07:58:44;;;;;;;;;;;;;;;34.60;22.74;100719.63;5038548;28;19908;-79
2022/07/15 08:01:11;;;;;;;;;;;;;;;34.26;22.41;100715.53;5013867;28;20379;-80
2022/07/15 08:03:37;;;;;;;;;;;;;;;34.07;22.93;100721.28;5021541;28;19909;-80
2022/07/15 08:06:02;;;;;;;;;;;;;;;34.24;22.90;100718.63;4998178;28;19908;-79
2022/07/15 08:08:28;;;;;;;;;;;;;;;34.68;22.17;100721.66;5018497;28;20054;-80
2022/07/15 08:10:54;;;;;;;;;;;;;;;34.62;21.92;100720.97;5034722;28;19925;-80
2022/07/15 08:13:21;;;;;;;;;;;;;;;34.25;21.62;100720.28;5037614;28;19960;-80
2022/07/15 08:15:46;;;;;;;;;;;;;;;34.23;22.04;100728.16;5014185;28;20003;-80
2022/07/15 08:18:12;;;;;;;;;;;;;;;34.25;22.23;100713.84;5016859;28;20067;-80
2022/07/15 08:20:37;;;;;;;;;;;;;;;34.17;22.46;100712.69;5024540;28;20400;-80
2022/07/15 08:23:03;;;;;;;;;;;;;;;34.59;22.29;100718.81;5022665;28;19916;-78
2022/07/15 08:25:29;;;;;;;;;;;;;;;34.96;21.41;100710.25;5031184;28;19979;-79
2022/07/15 08:27:54;;;;;;;;;;;;;;;35.30;21.40;100710.34;5020381;28;20427;-81
2022/07/15 08:30:20;;;;;;;;;;;;;;;35.76;20.19;100710.91;5009396;28;20262;-83
2022/07/15 08:32:48;;;;;;;;;;;;;;;36.50;20.23;100706.16;5008712;28;20384;-80
2022/07/15 08:35:14;;;;;;;;;;;;;;;36.71;20.25;100714.66;5012912;28;19921;-80
2022/07/15 08:37:41;;;;;;;;;;;;;;;37.06;20.20;100712.53;5019893;28;19912;-80
2022/07/15 08:40:10;;;;;;;;;;;;;;;37.17;20.68;100710.97;5017927;28;19909;-80
2022/07/15 08:42:39;;;;;;;;;;;;;;;36.85;21.32;100711.63;5014743;28;19920;-80
2022/07/15 08:45:04;;;;;;;;;;;;;;;37.02;21.46;100707.91;5032580;28;19913;-80
2022/07/15 08:47:30;;;;;;;;;;;;;;;36.72;20.70;100707.91;5015069;28;20376;-80
2022/07/15 08:49:58;;;;;;;;;;;;;;;36.75;21.36;100713.66;5016601;28;19909;-78
2022/07/15 08:52:27;;;;;;;;;;;;;;;36.48;21.74;100709.31;5019567;28;19921;-83
2022/07/15 08:54:52;;;;;;;;;;;;;;;36.13;22.79;100708.59;5000629;28;20316;-82
2022/07/15 08:57:18;;;;;;;;;;;;;;;36.05;21.51;100707.41;5017999;28;19924;-78
2022/07/15 08:59:45;;;;;;;;;;;;;;;36.54;22.08;100712.72;5001582;28;19935;-79
2022/07/15 09:02:14;;;;;;;;;;;;;;;36.47;21.39;100712.44;5044857;28;20354;-80
2022/07/15 09:04:58;;;;;;;;;;;;;;;36.86;21.06;100713.28;5022612;28;19935;-82
2022/07/15 09:07:24;;;;;;;;;;;;;;;36.66;22.04;100704.47;5016896;28;20064;-81
2022/07/15 09:09:49;;;;;;;;;;;;;;;36.58;22.78;100702.53;5012993;28;19979;-83
2022/07/15 09:12:15;;;;;;;;;;;;;;;36.67;22.50;100706.13;5003096;28;19908;-79
2022/07/15 09:14:44;;;;;;;;;;;;;;;37.23;22.50;100710.75;5013492;28;20357;-79
2022/07/15 09:17:09;;;;;;;;;;;;;;;37.13;21.70;100712.00;5038010;28;19908;-80
2022/07/15 09:19:53;;;;;;;;;;;;;;;37.73;21.30;100701.50;5014789;28;20425;-81
2022/07/15 09:22:19;;;;;;;;;;;;;;;37.99;21.51;100706.84;5019929;28;19913;-81
2022/07/15 09:24:44;;;;;;;;;;;;;;;37.80;22.39;100718.59;5024505;28;19909;-80
2022/07/15 09:27:32;;;;;;;;;;;;;;;38.29;22.35;100704.75;5015881;28;19913;-81
2022/07/15 09:38:25;;;;;;;;;;;;;;;36.67;27.14;100711.72;5035649;28;19962;-82
2022/07/15 09:40:50;;;;;;;;;;;;;;;37.73;25.72;100719.16;5005679;28;20111;-80
2022/07/15 09:43:16;;;;;;;;;;;;;;;37.20;26.02;100715.06;5000645;28;19913;-80
2022/07/15 09:45:41;;;;;;;;;;;;;;;37.52;25.55;100710.72;4996806;28;20014;-80
2022/07/15 09:48:12;;;;;;;;;;;;;;;37.92;25.93;100704.59;5023262;28;19920;-81
2022/07/15 09:50:42;;;;;;;;;;;;;;;39.60;23.82;100698.16;5013698;28;20007;-83
2022/07/15 09:53:13;;;;;;;;;;;;;;;39.10;22.82;100710.66;5006994;28;19916;-79
2022/07/15 09:55:39;;;;;;;;;;;;;;;38.67;23.58;100700.84;4996473;28;19908;-79
2022/07/15 09:58:05;;;;;;;;;;;;;;;38.29;24.21;100707.56;5016473;28;19920;-83
2022/07/15 10:00:33;;;;;;;;;;;;;;;38.83;23.05;100698.97;4997941;28;19914;-79
2022/07/15 10:02:59;;;;;;;;;;;;;;;38.05;25.37;100699.91;4999590;28;19932;-82
2022/07/15 10:05:27;;;;;;;;;;;;;;;39.30;24.01;100699.63;5000534;28;19936;-80
2022/07/15 10:07:55;;;;;;;;;;;;;;;38.47;23.92;100691.38;5016238;28;20356;-80
2022/07/15 10:10:21;;;;;;;;;;;;;;;40.33;22.57;100693.38;5001069;28;19940;-81
2022/07/15 10:13:06;;;;;;;;;;;;;;;38.55;24.84;100690.41;4998853;28;19913;-83
2022/07/15 10:15:49;;;;;;;;;;;;;;;39.41;23.80;100701.63;5013055;28;19908;-81
2022/07/15 10:18:22;;;;;;;;;;;;;;;39.18;24.81;100698.50;5033639;28;19920;-84
2022/07/15 10:20:47;;;;;;;;;;;;;;;37.44;26.30;100705.16;5012531;28;20011;-81
2022/07/15 10:23:20;;;;;;;;;;;;;;;38.19;26.27;100699.59;5024773;28;20426;-82
2022/07/15 10:25:58;;;;;;;;;;;;;;;38.68;25.83;100682.00;5012122;28;20285;-79
2022/07/15 10:28:44;;;;;;;;;;;;;;;38.97;24.74;100695.00;5044565;28;20395;-81
2022/07/15 10:31:26;;;;;;;;;;;;;;;39.36;24.48;100699.06;5015830;28;19909;-82
2022/07/15 10:34:06;;;;;;;;;;;;;;;39.36;24.50;100693.44;5023921;28;19909;-85
2022/07/15 10:36:38;;;;;;;;;;;;;;;40.46;23.78;100686.50;5016075;28;19919;-81
2022/07/15 10:39:06;;;;;;;;;;;;;;;39.58;24.55;100686.44;5021202;28;19948;-80
2022/07/15 10:41:50;;;;;;;;;;;;;;;38.70;25.86;100676.84;5034170;28;19923;-81
2022/07/15 10:44:15;;;;;;;;;;;;;;;38.95;25.03;100683.31;5039882;28;19909;-81
2022/07/15 10:46:40;;;;;;;;;;;;;;;38.78;25.72;100679.53;5034202;28;20444;-80
2022/07/15 10:49:08;;;;;;;;;;;;;;;37.73;25.93;100679.88;5016165;28;19908;-80
2022/07/15 10:51:36;;;;;;;;;;;;;;;36.56;29.14;100688.03;5017462;28;19913;-81
2022/07/15 10:54:02;;;;;;;;;;;;;;;36.04;30.13;100676.97;5035679;28;19916;-81
2022/07/15 10:56:35;;;;;;;;;;;;;;;36.19;30.02;100670.03;5034574;28;19919;-80
2022/07/15 10:59:16;;;;;;;;;;;;;;;35.61;30.58;100672.25;5003852;28;19909;-80
2022/07/15 11:01:45;;;;;;;;;;;;;;;34.20;33.04;100672.97;5035577;28;19924;-80
2022/07/15 11:04:11;;;;;;;;;;;;;;;34.99;31.63;100676.09;5003072;28;20421;-78
2022/07/15 11:06:56;;;;;;;;;;;;;;;34.77;32.83;100675.06;5038191;28;20012;-79
2022/07/15 11:09:40;;;;;;;;;;;;;;;33.97;34.59;100676.91;5048394;28;19916;-83
2022/07/15 11:12:05;;;;;;;;;;;;;;;33.10;36.64;100673.38;5039867;28;20419;-78
2022/07/15 11:14:41;;;;;;;;;;;;;;;33.17;37.59;100671.00;5021162;28;19909;-78
2022/07/15 11:17:07;;;;;;;;;;;;;;;32.53;38.39;100670.91;5022393;28;19912;-78
2022/07/15 11:19:33;;;;;;;;;;;;;;;32.40;39.07;100672.50;5041539;28;19951;-80
2022/07/15 11:21:58;;;;;;;;;;;;;;;32.84;38.82;100681.44;5038860;28;19940;-80
2022/07/15 11:24:24;;;;;;;;;;;;;;;32.51;39.18;100673.19;5036509;28;20355;-80
2022/07/15 11:26:50;;;;;;;;;;;;;;;32.63;38.96;100672.66;5017549;28;19913;-80
2022/07/15 11:29:18;;;;;;;;;;;;;;;32.62;38.79;100671.84;5034969;28;20004;-82
2022/07/15 11:31:43;;;;;;;;;;;;;;;32.52;38.92;100669.25;5016637;28;20058;-80
2022/07/15 11:34:08;;;;;;;;;;;;;;;32.41;38.33;100674.19;5025945;28;20396;-85
2022/07/15 11:36:34;;;;;;;;;;;;;;;32.73;37.77;100672.44;5039619;28;19925;-81
2022/07/15 11:38:59;;;;;;;;;;;;;;;32.60;37.52;100671.31;5006941;28;19909;-79
2022/07/15 11:46:53;;;;;;;;;;;;;;;32.46;36.53;100668.50;5032148;28;20371;-81
2022/07/15 11:49:31;;;;;;;;;;;;;;;32.32;35.71;100670.44;5014654;28;19956;-82
2022/07/15 11:51:57;;;;;;;;;;;;;;;32.06;35.27;100667.31;5000669;28;19978;-79
2022/07/15 11:54:22;;;;;;;;;;;;;;;32.03;35.14;100667.91;5000519;28;19909;-81
2022/07/15 11:56:54;;;;;;;;;;;;;;;31.55;36.72;100674.50;5034663;28;19935;-80
2022/07/15 11:59:20;;;;;;;;;;;;;;;31.09;35.63;100666.78;5017499;28;20000;-78
2022/07/15 12:01:45;;;;;;;;;;;;;;;31.06;36.61;100661.84;5034600;28;20484;-79
2022/07/15 12:04:10;;;;;;;;;;;;;;;31.13;37.06;100651.19;5017974;28;19905;-80
2022/07/15 12:06:36;;;;;;;;;;;;;;;31.13;37.89;100646.47;5016453;28;19912;-80
2022/07/15 12:09:03;;;;;;;;;;;;;;;30.85;38.53;100656.56;5018836;28;19908;-81
2022/07/15 12:11:33;;;;;;;;;;;;;;;31.15;38.66;100660.06;4997088;28;19921;-80
2022/07/15 12:13:58;;;;;;;;;;;;;;;30.81;39.52;100652.72;5022875;28;19915;-80
2022/07/15 12:16:25;;;;;;;;;;;;;;;30.78;40.25;100646.91;5032530;28;19912;-81
2022/07/15 12:18:51;;;;;;;;;;;;;;;30.92;40.18;100651.47;5040601;28;19944;-80
2022/07/15 12:21:16;;;;;;;;;;;;;;;31.17;39.35;100643.94;5037325;28;19971;-81
2022/07/15 12:23:51;;;;;;;;;;;;;;;30.94;40.52;100650.38;5022262;28;19916;-80
2022/07/15 12:26:17;;;;;;;;;;;;;;;31.11;40.29;100647.91;5019731;28;20285;-80
2022/07/15 12:28:42;;;;;;;;;;;;;;;30.80;40.54;100653.81;5035900;28;19913;-80
2022/07/15 12:31:07;;;;;;;;;;;;;;;30.46;41.48;100653.94;5013647;28;19915;-82
2022/07/15 12:33:33;;;;;;;;;;;;;;;30.53;41.38;100653.59;5021896;28;19913;-79
2022/07/15 12:36:25;;;;;;;;;;;;;;;30.33;42.08;100649.94;5031520;28;20382;-80
2022/07/15 12:39:09;;;;;;;;;;;;;;;30.47;42.24;100645.34;5030528;28;19940;-80
2022/07/15 12:41:35;;;;;;;;;;;;;;;30.31;42.46;100652.16;5032908;28;20404;-80
2022/07/15 12:44:04;;;;;;;;;;;;;;;30.31;41.44;100643.84;5014097;28;19935;-80
2022/07/15 12:46:48;;;;;;;;;;;;;;;30.08;42.17;100648.22;5021095;28;19935;-81
2022/07/15 12:49:32;;;;;;;;;;;;;;;29.57;43.91;100643.06;5028604;28;19909;-78
2022/07/15 12:51:58;;;;;;;;;;;;;;;29.85;43.21;100627.63;5033546;28;19920;-80
2022/07/15 12:54:23;;;;;;;;;;;;;;;29.95;43.81;100638.66;5015402;28;20285;-80